Latest Coastal Weather Observations for Marion Reef

IDQ60701

Issued at 4:42 am EST Wednesday 4 March 2015 (issued every 10 minutes, with the page automatically refreshed every 10 minutes)

About coastal observations | Map of coastal stations | Coastal observations for QLD | Marine services | Other Formats
Station Details ID: 200704 Name: MARION REEF Lat: -19.10 Lon: 152.39 Height: 2.0 m
Data from the previous 72 hours. | See also: Recent months for locations in Queensland
Date/Time
EST
Temp

°C
Wind Pressure Rain
since 9am
mm
Weather Cloud Vis
km
Sea
Height
m
Swell
Dir
 
Speed
knots
Gust
knots
hPa Trend Height
m
Period
s
Dir
04/04:30am 27.4 ESE 16 19 1008.0 - - - - - - - - -
04/04:00am 27.6 ESE 16 18 1007.7 - - - - - - - - -
04/03:30am 27.5 ESE 17 19 1008.0 - - - - - - - - -
04/03:00am 27.5 ESE 17 19 1008.1 - - - - - - - - -
04/02:30am 27.6 ESE 17 19 1008.5 - - - - - - - - -
04/02:00am 27.7 ESE 18 21 1008.6 - - - - - - - - -
04/01:30am 27.7 ESE 18 20 1009.0 - - - - - - - - -
04/01:00am 27.8 ESE 18 20 1009.1 - - - - - - - - -
04/12:30am 27.9 ESE 18 21 1009.7 - - - - - - - - -
04/12:00am 27.7 ESE 19 21 1009.9 - - - - - - - - -
 
Date/Time
EST
Temp

°C
Wind Pressure Rain
since 9am
mm
Weather Cloud Vis
km
Sea
Height
m
Swell
Dir
 
Speed
knots
Gust
knots
hPa Trend Height
m
Period
s
Dir
03/11:30pm 27.9 ESE 18 21 1010.1 - - - - - - - - -
03/11:00pm 27.8 ESE 19 23 1010.1 - - - - - - - - -
03/10:30pm 27.9 ESE 20 23 1010.2 - - - - - - - - -
03/10:00pm 27.9 ESE 21 24 1010.2 - - - - - - - - -
03/09:30pm 27.8 ESE 19 22 1010.3 - - - - - - - - -
03/09:00pm 28.1 ESE 19 21 1010.0 - - - - - - - - -
03/08:30pm 28.0 SE 18 21 1009.9 - - - - - - - - -
03/08:00pm 28.1 SE 19 21 1009.5 - - - - - - - - -
03/07:30pm 28.0 SE 16 19 1009.3 - - - - - - - - -
03/07:00pm 27.9 SE 17 19 1008.9 - - - - - - - - -
03/06:30pm 28.1 ESE 16 19 1008.7 - - - - - - - - -
03/06:00pm 27.9 ESE 16 19 1008.4 - - - - - - - - -
03/05:30pm 28.1 SE 14 16 1008.3 - - - - - - - - -
03/05:00pm 28.2 SE 15 17 1008.0 - - - - - - - - -
03/04:30pm 28.2 SE 15 17 1007.9 - - - - - - - - -
03/04:00pm 28.2 SE 14 16 1007.8 - - - - - - - - -
03/03:30pm 28.1 SE 13 15 1007.8 - - - - - - - - -
03/03:00pm 28.1 SE 13 14 1007.8 - - - - - - - - -
03/02:30pm 27.9 SE 12 14 1008.0 - - - - - - - - -
03/02:00pm 28.0 SE 13 14 1008.2 - - - - - - - - -
03/01:30pm 28.1 SE 12 14 1008.5 - - - - - - - - -
03/01:00pm 28.3 SE 12 14 1008.8 - - - - - - - - -
03/12:30pm 28.1 SE 13 16 1009.3 - - - - - - - - -
03/12:00pm 27.8 SSE 13 15 1009.4 - - - - - - - - -
03/11:30am 27.9 SE 13 15 1009.6 - - - - - - - - -
03/11:00am 27.8 SSE 14 17 1009.7 - - - - - - - - -
03/10:30am 27.9 SE 14 16 1009.8 - - - - - - - - -
03/10:00am 27.8 SE 15 16 1009.7 - - - - - - - - -
03/09:30am 27.7 SE 14 16 1009.8 - - - - - - - - -
03/09:00am 27.7 SE 14 16 1009.7 - - - - - - - - -
03/08:30am 27.7 SE 15 17 1009.8 - - - - - - - - -
03/08:00am 27.5 SE 15 17 1009.6 - - - - - - - - -
03/07:30am 27.7 SE 15 18 1009.5 - - - - - - - - -
03/07:00am 27.8 SE 15 17 1009.1 - - - - - - - - -
03/06:30am 27.4 ESE 16 19 1008.8 - - - - - - - - -
03/06:00am 27.3 ESE 16 19 1008.5 - - - - - - - - -
03/05:30am 27.5 ESE 16 19 1008.2 - - - - - - - - -
03/05:00am 27.3 ESE 17 20 1008.0 - - - - - - - - -
03/04:30am 27.0 ESE 18 21 1007.9 - - - - - - - - -
03/04:00am 27.1 ESE 18 21 1007.5 - - - - - - - - -
03/03:30am 26.9 ESE 19 22 1007.7 - - - - - - - - -
03/03:00am 27.1 ESE 20 23 1007.6 - - - - - - - - -
03/02:30am 26.8 SE 19 24 1007.9 - - - - - - - - -
03/02:00am 27.0 SE 21 23 1008.1 - - - - - - - - -
03/01:30am 27.1 SE 19 23 1008.5 - - - - - - - - -
03/01:00am 27.5 ESE 17 20 1008.8 - - - - - - - - -
03/12:30am 27.5 ESE 18 21 1009.1 - - - - - - - - -
03/12:00am 27.6 ESE 18 21 1009.2 - - - - - - - - -
 
Date/Time
EST
Temp

°C
Wind Pressure Rain
since 9am
mm
Weather Cloud Vis
km
Sea
Height
m
Swell
Dir
 
Speed
knots
Gust
knots
hPa Trend Height
m
Period
s
Dir
02/11:30pm 27.6 ESE 19 21 1009.5 - - - - - - - - -
02/11:00pm 27.5 ESE 20 23 1009.6 - - - - - - - - -
02/10:30pm 27.3 SE 20 24 1009.7 - - - - - - - - -
02/10:00pm 27.5 ESE 20 22 1009.4 - - - - - - - - -
02/09:30pm 27.6 SE 21 23 1009.4 - - - - - - - - -
02/09:00pm 27.9 SE 18 22 1008.9 - - - - - - - - -
02/08:30pm 27.6 SE 18 22 1008.7 - - - - - - - - -
02/08:00pm 27.8 SE 20 23 1008.4 - - - - - - - - -
02/07:30pm 27.6 SE 20 23 1008.4 - - - - - - - - -
02/07:00pm 27.5 SE 18 20 1008.0 - - - - - - - - -
02/06:30pm 27.6 SSE 17 21 1007.9 - - - - - - - - -
02/06:00pm 27.8 SSE 18 22 1007.6 - - - - - - - - -
02/05:30pm 27.8 SSE 18 22 1007.1 - - - - - - - - -
02/05:00pm 27.7 SSE 18 21 1006.6 - - - - - - - - -
02/04:30pm 27.7 SSE 19 21 1006.7 - - - - - - - - -
02/04:00pm 27.8 SSE 18 21 1006.6 - - - - - - - - -
02/03:30pm 27.9 SSE 17 20 1006.6 - - - - - - - - -
02/03:00pm 27.7 SSE 16 18 1006.5 - - - - - - - - -
02/02:30pm 27.8 S 15 18 1006.8 - - - - - - - - -
02/02:00pm 27.7 S 16 19 1007.0 - - - - - - - - -
02/01:30pm 27.5 S 16 19 1007.3 - - - - - - - - -
02/01:00pm 27.7 S 13 18 1007.6 - - - - - - - - -
02/12:30pm 27.5 S 13 15 1008.0 - - - - - - - - -
02/12:00pm 27.5 S 13 15 1008.2 - - - - - - - - -
02/11:30am 27.3 S 12 13 1008.7 - - - - - - - - -
02/11:00am 27.5 S 13 15 1008.9 - - - - - - - - -
02/10:30am 27.5 S 11 14 1009.4 - - - - - - - - -
02/10:00am 27.4 SSE 9 11 1009.1 - - - - - - - - -
02/09:30am 27.4 SSE 9 12 1009.2 - - - - - - - - -
02/09:00am 27.4 SSE 9 11 1009.1 - - - - - - - - -
02/08:30am 27.4 SE 10 12 1009.2 - - - - - - - - -
02/08:00am 27.4 SE 10 12 1008.8 - - - - - - - - -
02/07:30am 27.1 SSE 10 13 1008.6 - - - - - - - - -
02/07:00am 27.2 SE 11 12 1008.2 - - - - - - - - -
02/06:30am 27.0 SE 11 13 1008.0 - - - - - - - - -
02/06:00am 26.9 SE 10 12 1007.6 - - - - - - - - -
02/05:30am 27.1 SE 10 13 1007.4 - - - - - - - - -
02/05:00am 27.0 SSE 11 13 1007.0 - - - - - - - - -
02/04:30am 27.0 SE 11 13 1006.8 - - - - - - - - -
02/04:00am 27.0 SE 10 13 1006.8 - - - - - - - - -
02/03:30am 27.2 SE 10 15 1006.8 - - - - - - - - -
02/03:00am 27.1 SSE 9 9 1006.9 - - - - - - - - -
02/02:30am 27.1 SSE 8 9 1007.1 - - - - - - - - -
02/02:00am 27.2 SSE 9 11 1007.3 - - - - - - - - -
02/01:30am 27.2 SSE 9 11 1007.6 - - - - - - - - -
02/01:00am 27.2 SSE 9 11 1007.9 - - - - - - - - -
02/12:30am 27.3 SSE 9 11 1008.2 - - - - - - - - -
02/12:00am 27.1 SE 9 12 1008.3 - - - - - - - - -
 
Date/Time
EST
Temp

°C
Wind Pressure Rain
since 9am
mm
Weather Cloud Vis
km
Sea
Height
m
Swell
Dir
 
Speed
knots
Gust
knots
hPa Trend Height
m
Period
s
Dir
01/11:30pm 27.4 SE 10 13 1008.8 - - - - - - - - -
01/11:00pm 27.3 ESE 10 12 1008.9 - - - - - - - - -
01/10:30pm 27.5 SE 12 14 1009.2 - - - - - - - - -
01/10:00pm 27.5 SE 12 14 1009.0 - - - - - - - - -
01/09:30pm 27.6 SE 13 15 1008.9 - - - - - - - - -
01/09:00pm 27.6 SSE 12 15 1008.8 - - - - - - - - -
01/08:30pm 27.6 SSE 12 14 1008.8 - - - - - - - - -
01/08:00pm 27.6 SSE 12 14 1008.4 - - - - - - - - -
01/07:30pm 27.7 SSE 12 15 1008.1 - - - - - - - - -
01/07:00pm 27.5 SSE 12 14 1007.8 - - - - - - - - -
01/06:30pm 27.7 S 2 14 1007.7 - - - - - - - - -
01/06:00pm 27.7 S 12 14 1007.5 - - - - - - - - -
01/05:30pm 27.8 S 11 14 1007.3 - - - - - - - - -
01/05:00pm 27.9 S 11 12 1007.0 - - - - - - - - -
01/04:30pm 27.7 S 11 12 1006.9 - - - - - - - - -
01/04:00pm 27.7 S 11 13 1006.5 - - - - - - - - -
01/03:30pm 27.8 S 12 14 1006.5 - - - - - - - - -
01/03:00pm 27.6 S 11 13 1006.5 - - - - - - - - -
01/02:30pm 27.6 S 10 13 1006.7 - - - - - - - - -
01/02:00pm 27.7 S 10 12 1006.7 - - - - - - - - -
01/01:30pm 27.6 S 10 13 1007.1 - - - - - - - - -
01/01:00pm 27.5 S 10 13 1007.5 - - - - - - - - -
01/12:30pm 27.5 SSE 10 12 1007.9 - - - - - - - - -
01/12:00pm 27.6 SSE 11 12 1007.9 - - - - - - - - -
01/11:30am 27.5 SSE 11 14 1008.4 - - - - - - - - -
01/11:00am 27.6 SSE 11 13 1008.4 - - - - - - - - -
01/10:30am 27.7 SE 10 14 1008.7 - - - - - - - - -
01/10:00am 27.5 SE 10 11 1008.8 - - - - - - - - -
01/09:30am 27.5 SE 10 12 1008.7 - - - - - - - - -
01/09:00am 27.5 SE 9 11 1008.4 - - - - - - - - -
01/08:30am 27.4 SSE 9 11 1008.5 - - - - - - - - -
01/08:00am 27.2 SSE 8 10 1008.1 - - - - - - - - -
01/07:30am 27.3 SE 9 12 1007.9 - - - - - - - - -
01/07:00am 27.2 SE 10 13 1007.6 - - - - - - - - -
01/06:30am 27.1 SE 9 11 1007.3 - - - - - - - - -
01/06:00am 26.9 SSE 10 12 1007.0 - - - - - - - - -
01/05:30am 27.0 SSE 10 12 1007.0 - - - - - - - - -
01/05:00am 26.9 SSE 10 12 1006.8 - - - - - - - - -

Other Formats:

Comma delimited format used in spreadsheet applications
http://www.bom.gov.au/fwo/IDQ60701/IDQ60701.94298.axf

JavaScript Object Notation format (JSON) in row-major order
http://www.bom.gov.au/fwo/IDQ60701/IDQ60701.94298.json